createdAt,value
2023-04-15T00:00:45.093Z,62.35
2023-04-15T00:01:45.418Z,62.30
2023-04-15T00:02:45.493Z,63.34
2023-04-15T00:03:46.093Z,63.62
2023-04-15T00:04:45.647Z,63.62
2023-04-15T00:05:45.831Z,63.43
2023-04-15T00:06:46.011Z,62.58
2023-04-15T00:07:45.932Z,61.71
2023-04-15T00:08:46.152Z,59.61
2023-04-15T00:09:46.181Z,56.98
2023-04-15T00:10:46.260Z,54.97
2023-04-15T00:11:46.370Z,52.79
2023-04-15T00:12:46.460Z,53.26
2023-04-15T00:13:46.778Z,51.95
2023-04-15T00:14:46.688Z,50.39
2023-04-15T00:15:46.938Z,49.85
2023-04-15T00:16:47.096Z,49.65
2023-04-15T00:17:47.147Z,50.57
2023-04-15T00:18:47.186Z,51.69
2023-04-15T00:19:47.545Z,52.83
2023-04-15T00:20:47.440Z,54.05
2023-04-15T00:21:47.767Z,54.61
2023-04-15T00:22:47.714Z,55.26
2023-04-15T00:23:47.913Z,55.48
2023-04-15T00:24:48.014Z,55.70
2023-04-15T00:25:48.242Z,56.26
2023-04-15T00:26:48.301Z,55.74
2023-04-15T00:27:48.312Z,55.44
2023-04-15T00:28:48.444Z,56.22
2023-04-15T00:29:48.615Z,56.67
2023-04-15T00:30:48.501Z,57.88
2023-04-15T00:31:48.589Z,57.69
2023-04-15T00:32:48.786Z,58.49
2023-04-15T00:33:48.866Z,59.15
2023-04-15T00:34:48.957Z,59.44
2023-04-15T00:35:49.021Z,59.31
2023-04-15T00:36:49.141Z,58.37
2023-04-15T00:37:49.294Z,59.52
2023-04-15T00:38:49.377Z,60.03
2023-04-15T00:39:49.466Z,61.30
2023-04-15T00:40:49.585Z,62.81
2023-04-15T00:41:49.786Z,62.96
2023-04-15T00:42:49.839Z,61.35
2023-04-15T00:43:49.952Z,59.19
2023-04-15T00:44:50.303Z,60.95
2023-04-15T00:45:50.264Z,62.72
2023-04-15T00:46:50.301Z,60.33
2023-04-15T00:47:50.426Z,60.33
2023-04-15T00:48:50.522Z,62.12
2023-04-15T00:49:50.647Z,64.21
2023-04-15T00:50:51.325Z,66.49
2023-04-15T00:51:50.796Z,67.02
2023-04-15T00:52:50.935Z,67.34
2023-04-15T00:53:51.050Z,66.13
2023-04-15T00:54:51.187Z,65.51
2023-04-15T00:55:51.310Z,65.46
2023-04-15T00:56:51.432Z,67.78
2023-04-15T00:57:51.550Z,68.83
2023-04-15T00:58:51.694Z,70.15
2023-04-15T00:59:51.770Z,70.75
2023-04-15T01:00:52.189Z,69.34
2023-04-15T01:01:52.495Z,67.89
2023-04-15T01:02:52.574Z,66.86
2023-04-15T01:03:52.472Z,65.61
2023-04-15T01:04:52.598Z,65.66
2023-04-15T01:05:52.551Z,67.78
2023-04-15T01:06:52.663Z,69.06
2023-04-15T01:07:52.935Z,69.17
2023-04-15T01:08:52.899Z,67.78
2023-04-15T01:09:53.016Z,65.71
2023-04-15T01:10:53.184Z,63.34
2023-04-15T01:11:53.301Z,59.36
2023-04-15T01:12:53.348Z,57.88
2023-04-15T01:13:53.462Z,58.04
2023-04-15T01:14:53.567Z,58.41
2023-04-15T01:15:53.740Z,59.57
2023-04-15T01:16:53.894Z,58.24
2023-04-15T01:17:53.929Z,57.57
2023-04-15T01:18:54.059Z,57.69
2023-04-15T01:19:54.110Z,57.41
2023-04-15T01:20:54.234Z,57.21
2023-04-15T01:21:54.470Z,58.49
2023-04-15T01:22:54.485Z,59.61
2023-04-15T01:23:54.590Z,61.04
2023-04-15T01:24:54.762Z,62.17
2023-04-15T01:25:54.780Z,61.94
2023-04-15T01:26:54.903Z,61.48
2023-04-15T01:27:55.035Z,61.75
2023-04-15T01:28:55.161Z,63.15
2023-04-15T01:29:55.252Z,63.34
2023-04-15T01:30:55.370Z,63.29
2023-04-15T01:31:55.660Z,62.03
2023-04-15T01:32:55.640Z,61.66
2023-04-15T01:33:55.836Z,61.75
2023-04-15T01:34:55.816Z,61.08
2023-04-15T01:35:55.946Z,61.17
2023-04-15T01:36:56.058Z,62.53
2023-04-15T01:37:56.178Z,63.29
2023-04-15T01:38:56.313Z,63.15
2023-04-15T01:39:56.446Z,61.75
2023-04-15T01:40:56.510Z,59.86
2023-04-15T01:41:57.280Z,58.17
2023-04-15T01:42:56.867Z,57.14
2023-04-15T01:43:56.947Z,55.66
2023-04-15T01:44:57.039Z,53.98
2023-04-15T01:45:57.074Z,52.73
2023-04-15T01:46:57.323Z,52.40
2023-04-15T01:47:57.361Z,53.33
2023-04-15T01:48:57.458Z,53.91
2023-04-15T01:49:57.597Z,55.01
2023-04-15T01:50:57.672Z,55.96
2023-04-15T01:51:57.797Z,56.60
2023-04-15T01:52:58.014Z,56.60
2023-04-15T01:53:58.106Z,56.94
2023-04-15T01:54:58.138Z,58.00
2023-04-15T01:55:58.501Z,58.98
2023-04-15T01:56:58.321Z,58.82
2023-04-15T01:57:58.451Z,55.59
2023-04-15T01:58:58.852Z,51.47
2023-04-15T01:59:58.748Z,49.94
2023-04-15T02:00:58.893Z,47.33
2023-04-15T02:01:58.996Z,49.91
2023-04-15T02:02:59.109Z,50.66
2023-04-15T02:03:59.190Z,52.89
2023-04-15T02:04:59.213Z,53.98
2023-04-15T02:05:59.342Z,54.65
2023-04-15T02:06:59.506Z,54.02
2023-04-15T02:07:59.610Z,53.40
2023-04-15T02:08:59.953Z,50.54
2023-04-15T02:09:59.809Z,48.81
2023-04-15T02:10:59.938Z,48.50
2023-04-15T02:12:00.060Z,48.50
2023-04-15T02:13:00.184Z,47.49
2023-04-15T02:14:00.408Z,47.97
2023-04-15T02:15:00.473Z,48.06
2023-04-15T02:16:00.494Z,46.85
2023-04-15T02:17:00.616Z,43.87
2023-04-15T02:18:00.772Z,43.69
2023-04-15T02:19:01.336Z,43.64
2023-04-15T02:20:00.959Z,42.80
2023-04-15T02:21:01.092Z,41.99
2023-04-15T02:22:01.232Z,41.21
2023-04-15T02:23:01.383Z,41.01
2023-04-15T02:24:01.577Z,39.84
2023-04-15T02:25:01.597Z,39.77
2023-04-15T02:26:01.760Z,42.84
2023-04-15T02:27:01.839Z,44.15
2023-04-15T02:28:01.878Z,44.06
2023-04-15T02:29:02.454Z,42.46
2023-04-15T02:30:02.127Z,41.74
2023-04-15T02:31:02.272Z,41.29
2023-04-15T02:32:02.379Z,42.93
2023-04-15T02:33:02.602Z,42.89
2023-04-15T02:34:02.559Z,47.19
2023-04-15T02:35:02.704Z,50.85
2023-04-15T02:36:02.749Z,54.65
2023-04-15T02:37:02.872Z,56.22
2023-04-15T02:38:03.035Z,55.26
2023-04-15T02:39:03.536Z,54.97
2023-04-15T02:40:03.243Z,52.60
2023-04-15T02:41:03.309Z,49.56
2023-04-15T02:42:03.740Z,47.33
2023-04-15T02:43:03.541Z,46.23
2023-04-15T02:44:03.873Z,48.03
2023-04-15T02:45:03.793Z,50.42
2023-04-15T02:46:04.003Z,53.71
2023-04-15T02:47:04.154Z,55.37
2023-04-15T02:48:04.138Z,56.94
2023-04-15T02:49:04.239Z,58.00
2023-04-15T02:50:04.539Z,59.40
2023-04-15T02:51:04.518Z,59.57
2023-04-15T02:52:04.670Z,57.25
2023-04-15T02:53:04.675Z,56.37
2023-04-15T02:54:04.801Z,56.60
2023-04-15T02:55:04.911Z,57.76
2023-04-15T02:56:05.009Z,57.84
2023-04-15T02:57:05.721Z,57.25
2023-04-15T02:58:05.259Z,58.94
2023-04-15T02:59:05.398Z,59.78
2023-04-15T03:00:05.518Z,61.08
2023-04-15T03:01:05.652Z,61.30
2023-04-15T03:02:05.852Z,62.30
2023-04-15T03:03:05.985Z,62.07
2023-04-15T03:04:06.092Z,61.85
2023-04-15T03:05:06.082Z,62.77
2023-04-15T03:06:06.211Z,62.49
2023-04-15T03:07:06.307Z,62.26
2023-04-15T03:08:06.454Z,62.21
2023-04-15T03:09:06.556Z,59.82
2023-04-15T03:10:06.622Z,54.33
2023-04-15T03:11:06.778Z,53.13
2023-04-15T03:12:06.876Z,52.08
2023-04-15T03:13:06.993Z,51.16
2023-04-15T03:14:07.091Z,53.60
2023-04-15T03:15:07.214Z,53.77
2023-04-15T03:16:07.404Z,54.33
2023-04-15T03:17:07.434Z,54.29
2023-04-15T03:18:07.626Z,54.22
2023-04-15T03:19:07.780Z,51.12
2023-04-15T03:20:07.870Z,48.25
2023-04-15T03:21:07.906Z,47.43
2023-04-15T03:22:08.326Z,45.05
2023-04-15T03:23:08.153Z,45.05
2023-04-15T03:24:08.309Z,46.85
2023-04-15T03:25:08.394Z,46.85
2023-04-15T03:26:08.517Z,45.39
2023-04-15T03:27:08.834Z,44.38
2023-04-15T03:28:08.803Z,43.87
2023-04-15T03:29:08.903Z,43.64
2023-04-15T03:30:09.064Z,43.64
2023-04-15T03:31:09.149Z,42.97
2023-04-15T03:32:09.309Z,42.67
2023-04-15T03:33:09.425Z,41.62
2023-04-15T03:34:09.481Z,40.30
2023-04-15T03:35:09.626Z,38.25
2023-04-15T03:36:09.734Z,36.46
2023-04-15T03:37:09.829Z,35.60
2023-04-15T03:38:09.987Z,35.06
2023-04-15T03:39:10.068Z,35.93
2023-04-15T03:40:10.305Z,35.50
2023-04-15T03:41:10.278Z,35.03
2023-04-15T03:42:11.018Z,36.05
2023-04-15T03:43:10.605Z,35.81
2023-04-15T03:44:10.598Z,34.83
2023-04-15T03:45:10.790Z,33.82
2023-04-15T03:46:10.853Z,32.97
2023-04-15T03:47:10.916Z,32.84
2023-04-15T03:48:17.653Z,33.10
2023-04-15T03:49:12.179Z,33.50
2023-04-15T03:50:11.318Z,34.04
2023-04-15T03:51:11.372Z,32.56
2023-04-15T03:52:11.519Z,32.69
2023-04-15T03:53:11.666Z,32.46
2023-04-15T03:54:11.764Z,31.33
2023-04-15T03:55:11.830Z,31.14
2023-04-15T03:56:11.942Z,31.73
2023-04-15T03:57:12.047Z,30.75
2023-04-15T03:58:12.350Z,31.10
2023-04-15T03:59:12.311Z,32.79
2023-04-15T04:00:12.412Z,33.66
2023-04-15T04:01:12.592Z,33.71
2023-04-15T04:02:12.826Z,34.07
2023-04-15T04:03:12.975Z,33.55
2023-04-15T04:04:13.092Z,33.58
2023-04-15T04:05:12.983Z,33.96
2023-04-15T04:06:13.098Z,32.79
2023-04-15T04:07:13.214Z,33.02
2023-04-15T04:08:13.317Z,33.08
2023-04-15T04:09:13.543Z,33.18
2023-04-15T04:10:13.553Z,32.79
2023-04-15T04:11:13.665Z,31.80
2023-04-15T04:12:13.785Z,31.59
2023-04-15T04:13:13.948Z,31.40
2023-04-15T04:14:14.106Z,31.73
2023-04-15T04:15:14.160Z,31.75
2023-04-15T04:16:14.325Z,31.03
2023-04-15T04:17:14.388Z,31.47
2023-04-15T04:18:14.626Z,31.05
2023-04-15T04:19:14.554Z,30.09
2023-04-15T04:20:14.663Z,29.99
2023-04-15T04:21:14.819Z,29.71
2023-04-15T04:22:14.938Z,29.04
2023-04-15T04:23:15.033Z,29.12
2023-04-15T04:24:15.207Z,29.18
2023-04-15T04:25:15.210Z,29.24
2023-04-15T04:26:15.695Z,29.55
2023-04-15T04:27:15.549Z,30.67
2023-04-15T04:28:15.617Z,31.21
2023-04-15T04:29:15.712Z,31.92
2023-04-15T04:30:15.874Z,32.17
2023-04-15T04:31:15.950Z,32.26
2023-04-15T04:32:16.145Z,33.47
2023-04-15T04:33:16.100Z,35.24
2023-04-15T04:34:16.349Z,36.91
2023-04-15T04:35:16.391Z,37.80
2023-04-15T04:36:16.445Z,38.46
2023-04-15T04:37:16.653Z,38.78
2023-04-15T04:38:16.691Z,37.63
2023-04-15T04:39:16.758Z,35.96
2023-04-15T04:40:16.972Z,35.30
2023-04-15T04:41:17.100Z,35.24
2023-04-15T04:42:17.440Z,35.42
2023-04-15T04:43:17.481Z,35.84
2023-04-15T04:44:17.389Z,35.78
2023-04-15T04:45:17.569Z,35.78
2023-04-15T04:46:17.723Z,34.43
2023-04-15T04:47:17.653Z,33.44
2023-04-15T04:48:18.800Z,33.55
2023-04-15T04:49:17.890Z,33.55
2023-04-15T04:50:18.017Z,34.12
2023-04-15T04:51:18.080Z,35.24
2023-04-15T04:52:18.228Z,36.40
2023-04-15T04:53:18.450Z,36.68
2023-04-15T04:54:18.460Z,36.74
2023-04-15T04:55:18.562Z,37.43
2023-04-15T04:56:18.692Z,36.65
2023-04-15T04:57:18.814Z,35.53
2023-04-15T04:58:18.988Z,34.26
2023-04-15T04:59:19.540Z,33.15
2023-04-15T05:00:19.131Z,32.34
2023-04-15T05:01:19.286Z,31.87
2023-04-15T05:02:19.472Z,32.12
2023-04-15T05:03:19.735Z,31.87
2023-04-15T05:04:19.663Z,32.39
2023-04-15T05:05:19.764Z,32.26
2023-04-15T05:06:19.831Z,31.42
2023-04-15T05:07:19.939Z,30.51
2023-04-15T05:08:20.204Z,31.00
2023-04-15T05:09:20.184Z,30.98
2023-04-15T05:10:20.297Z,30.75
2023-04-15T05:11:20.503Z,30.87
2023-04-15T05:12:20.555Z,30.82
2023-04-15T05:13:20.669Z,30.35
2023-04-15T05:14:22.875Z,30.49
2023-04-15T05:15:20.912Z,30.16
2023-04-15T05:16:21.136Z,29.69
2023-04-15T05:17:21.206Z,29.90
2023-04-15T05:18:21.325Z,29.61
2023-04-15T05:19:21.339Z,29.14
2023-04-15T05:20:21.550Z,29.04
2023-04-15T05:21:21.588Z,28.98
2023-04-15T05:22:21.813Z,28.74
2023-04-15T05:23:21.842Z,28.54
2023-04-15T05:24:21.979Z,28.41
2023-04-15T05:25:22.045Z,28.90
2023-04-15T05:26:22.164Z,28.66
2023-04-15T05:27:22.306Z,29.40
2023-04-15T05:28:22.481Z,30.14
2023-04-15T05:29:22.672Z,30.67
2023-04-15T05:30:22.560Z,30.87
2023-04-15T05:31:22.734Z,31.17
2023-04-15T05:32:22.857Z,32.74
2023-04-15T05:33:22.926Z,32.97
2023-04-15T05:34:23.080Z,35.30
2023-04-15T05:35:23.240Z,37.30
2023-04-15T05:36:23.282Z,39.10
2023-04-15T05:37:23.417Z,40.03
2023-04-15T05:38:23.573Z,40.07
2023-04-15T05:39:23.672Z,38.63
2023-04-15T05:40:23.879Z,37.60
2023-04-15T05:41:23.954Z,38.56
2023-04-15T05:42:24.107Z,39.43
2023-04-15T05:43:24.167Z,40.49
2023-04-15T05:44:24.257Z,39.84
2023-04-15T05:45:24.345Z,39.54
2023-04-15T05:46:24.507Z,39.65
2023-04-15T05:47:24.782Z,40.77
2023-04-15T05:48:24.655Z,41.37
2023-04-15T05:49:24.816Z,39.43
2023-04-15T05:50:25.134Z,40.18
2023-04-15T05:51:25.041Z,40.77
2023-04-15T05:52:25.247Z,40.07
2023-04-15T05:53:25.273Z,38.67
2023-04-15T05:54:25.359Z,37.70
2023-04-15T05:55:25.639Z,37.20
2023-04-15T05:56:25.645Z,33.60
2023-04-15T05:57:25.748Z,32.24
2023-04-15T05:58:25.964Z,31.21
2023-04-15T05:59:26.022Z,31.21
2023-04-15T06:00:26.091Z,29.67
2023-04-15T06:01:26.253Z,29.46
2023-04-15T06:02:26.534Z,28.96
2023-04-15T06:03:26.517Z,28.18
2023-04-15T06:04:26.913Z,29.02
2023-04-15T06:05:26.667Z,29.30
2023-04-15T06:06:26.795Z,28.41
2023-04-15T06:07:26.954Z,27.86
2023-04-15T06:08:26.999Z,27.83
2023-04-15T06:09:27.134Z,27.88
2023-04-15T06:10:27.221Z,29.40
2023-04-15T06:11:27.417Z,28.90
2023-04-15T06:12:27.537Z,27.72
2023-04-15T06:13:27.582Z,29.34
2023-04-15T06:14:27.658Z,31.42
2023-04-15T06:15:27.782Z,30.55
2023-04-15T06:16:29.552Z,29.82
2023-04-15T06:17:28.044Z,29.69
2023-04-15T06:18:28.145Z,29.48
2023-04-15T06:19:28.304Z,29.69
2023-04-15T06:20:28.396Z,29.44
2023-04-15T06:21:28.576Z,30.75
2023-04-15T06:22:28.697Z,32.04
2023-04-15T06:23:28.757Z,32.84
2023-04-15T06:24:28.977Z,32.87
2023-04-15T06:25:29.015Z,33.50
2023-04-15T06:26:29.086Z,34.46
2023-04-15T06:27:29.257Z,35.30
2023-04-15T06:28:29.396Z,35.96
2023-04-15T06:29:29.402Z,35.33
2023-04-15T06:30:29.637Z,36.81
2023-04-15T06:31:29.687Z,37.90
2023-04-15T06:32:29.810Z,39.43
2023-04-15T06:33:29.894Z,38.42
2023-04-15T06:34:30.071Z,40.57
2023-04-15T06:35:30.350Z,42.58
2023-04-15T06:36:30.185Z,41.82
2023-04-15T06:37:30.382Z,41.53
2023-04-15T06:38:30.409Z,42.24
2023-04-15T06:39:30.580Z,42.12
2023-04-15T06:40:30.653Z,42.54
2023-04-15T06:41:30.717Z,41.53
2023-04-15T06:42:30.886Z,40.49
2023-04-15T06:43:31.148Z,41.90
2023-04-15T06:44:33.244Z,42.46
2023-04-15T06:45:31.241Z,43.37
2023-04-15T06:46:31.288Z,44.15
2023-04-15T06:47:31.459Z,43.42
2023-04-15T06:48:31.576Z,42.80
2023-04-15T06:49:31.647Z,41.62
2023-04-15T06:50:32.178Z,39.10
2023-04-15T06:51:31.967Z,38.81
2023-04-15T06:52:32.079Z,38.53
2023-04-15T06:53:32.103Z,35.99
2023-04-15T06:54:32.235Z,35.65
2023-04-15T06:55:32.545Z,36.40
2023-04-15T06:56:32.458Z,36.43
2023-04-15T06:57:34.863Z,36.21
2023-04-15T06:58:32.762Z,34.74
2023-04-15T06:59:32.819Z,33.66
2023-04-15T07:00:33.010Z,33.85
2023-04-15T07:01:33.135Z,33.28
2023-04-15T07:02:33.396Z,32.59
2023-04-15T07:03:33.288Z,31.21
2023-04-15T07:04:33.479Z,31.75
2023-04-15T07:05:33.710Z,32.41
2023-04-15T07:06:33.629Z,33.55
2023-04-15T07:07:33.740Z,31.70
2023-04-15T07:08:33.848Z,32.44
2023-04-15T07:09:35.018Z,31.17
2023-04-15T07:10:34.071Z,31.56
2023-04-15T07:11:34.236Z,33.21
2023-04-15T07:12:34.289Z,34.21
2023-04-15T07:13:34.424Z,33.47
2023-04-15T07:14:34.521Z,33.55
2023-04-15T07:15:34.626Z,33.50
2023-04-15T07:16:34.809Z,34.29
2023-04-15T07:17:34.893Z,32.74
2023-04-15T07:18:34.930Z,32.90
2023-04-15T07:19:35.081Z,32.49
2023-04-15T07:20:35.153Z,31.26
2023-04-15T07:21:35.324Z,30.47
2023-04-15T07:22:35.407Z,30.44
2023-04-15T07:23:35.572Z,31.87
2023-04-15T07:24:35.683Z,34.12
2023-04-15T07:25:35.817Z,33.93
2023-04-15T07:26:35.959Z,32.69
2023-04-15T07:27:36.172Z,32.39
2023-04-15T07:28:36.210Z,32.17
2023-04-15T07:29:36.373Z,32.29
2023-04-15T07:30:36.543Z,32.34
2023-04-15T07:31:36.684Z,33.66
2023-04-15T07:32:37.042Z,35.06
2023-04-15T07:33:36.819Z,36.40
2023-04-15T07:34:37.021Z,37.50
2023-04-15T07:35:37.211Z,37.50
2023-04-15T07:36:37.253Z,36.68
2023-04-15T07:37:37.398Z,35.96
2023-04-15T07:38:37.568Z,36.18
2023-04-15T07:39:37.624Z,36.46
2023-04-15T07:40:37.788Z,36.62
2023-04-15T07:41:37.946Z,35.00
2023-04-15T07:42:39.415Z,34.74
2023-04-15T07:43:38.185Z,34.66
2023-04-15T07:44:38.293Z,34.51
2023-04-15T07:45:38.491Z,32.26
2023-04-15T07:46:38.788Z,32.90
2023-04-15T07:47:38.710Z,33.52
2023-04-15T07:48:38.818Z,34.57
2023-04-15T07:49:38.907Z,35.69
2023-04-15T07:50:39.055Z,37.56
2023-04-15T07:51:39.246Z,37.73
2023-04-15T07:52:39.293Z,36.62
2023-04-15T07:53:39.432Z,34.63
2023-04-15T07:54:39.572Z,34.66
2023-04-15T07:55:39.718Z,36.15
2023-04-15T07:56:39.845Z,36.62
2023-04-15T07:57:40.085Z,35.42
2023-04-15T07:58:40.067Z,35.27
2023-04-15T07:59:40.207Z,32.24
2023-04-15T08:00:40.345Z,33.18
2023-04-15T08:01:40.439Z,34.77
2023-04-15T08:02:40.874Z,33.50
2023-04-15T08:03:40.767Z,33.34
2023-04-15T08:04:41.048Z,34.66
2023-04-15T08:05:40.934Z,34.29
2023-04-15T08:06:41.043Z,34.10
2023-04-15T08:07:41.231Z,35.42
2023-04-15T08:08:41.365Z,34.01
2023-04-15T08:09:41.473Z,35.62
2023-04-15T08:10:41.588Z,36.05
2023-04-15T08:11:41.727Z,35.06
2023-04-15T08:12:41.887Z,33.50
2023-04-15T08:13:41.941Z,31.51
2023-04-15T08:14:42.091Z,33.44
2023-04-15T08:15:42.242Z,34.18
2023-04-15T08:16:42.312Z,34.23
2023-04-15T08:17:42.594Z,33.18
2023-04-15T08:18:42.601Z,32.64
2023-04-15T08:19:42.726Z,32.77
2023-04-15T08:20:42.817Z,32.87
2023-04-15T08:21:42.972Z,31.68
2023-04-15T08:22:43.160Z,30.33
2023-04-15T08:23:43.194Z,30.87
2023-04-15T08:24:43.326Z,30.14
2023-04-15T08:25:43.455Z,30.89
2023-04-15T08:26:43.586Z,31.37
2023-04-15T08:27:43.708Z,31.54
2023-04-15T08:28:43.790Z,31.61
2023-04-15T08:29:43.963Z,30.14
2023-04-15T08:30:44.059Z,27.39
2023-04-15T08:31:44.307Z,28.56
2023-04-15T08:32:44.339Z,31.59
2023-04-15T08:33:44.502Z,32.14
2023-04-15T08:34:44.596Z,33.63
2023-04-15T08:35:44.755Z,33.85
2023-04-15T08:36:44.941Z,35.03
2023-04-15T08:37:45.073Z,35.60
2023-04-15T08:38:45.164Z,35.42
2023-04-15T08:39:45.209Z,37.87
2023-04-15T08:40:45.333Z,40.34
2023-04-15T08:41:45.540Z,42.07
2023-04-15T08:42:45.605Z,42.33
2023-04-15T08:43:45.729Z,41.41
2023-04-15T08:44:45.844Z,41.78
2023-04-15T08:45:46.043Z,41.82
2023-04-15T08:46:46.155Z,41.09
2023-04-15T08:47:46.325Z,41.37
2023-04-15T08:48:46.399Z,40.57
2023-04-15T08:49:46.507Z,39.73
2023-04-15T08:50:46.651Z,40.18
2023-04-15T08:51:46.738Z,39.28
2023-04-15T08:52:46.967Z,38.11
2023-04-15T08:53:47.046Z,38.18
2023-04-15T08:54:47.138Z,38.67
2023-04-15T08:55:47.318Z,40.61
2023-04-15T08:56:47.458Z,40.85
2023-04-15T08:57:47.588Z,41.25
2023-04-15T08:58:47.699Z,42.63
2023-04-15T08:59:47.785Z,43.02
2023-04-15T09:00:48.009Z,42.46
2023-04-15T09:01:48.263Z,42.80
2023-04-15T09:02:48.346Z,41.86
2023-04-15T09:03:48.540Z,39.36
2023-04-15T09:04:48.476Z,40.38
2023-04-15T09:05:48.641Z,39.36
2023-04-15T09:06:48.769Z,40.73
2023-04-15T09:07:48.884Z,40.57
2023-04-15T09:08:49.026Z,40.65
2023-04-15T09:09:49.205Z,39.88
2023-04-15T09:10:49.300Z,41.53
2023-04-15T09:11:49.429Z,41.70
2023-04-15T09:12:49.515Z,44.81
2023-04-15T09:13:49.688Z,46.08
2023-04-15T09:14:49.778Z,45.05
2023-04-15T09:15:50.018Z,46.28
2023-04-15T09:16:50.495Z,46.96
2023-04-15T09:17:50.251Z,49.59
2023-04-15T09:18:50.347Z,49.97
2023-04-15T09:19:50.438Z,49.70
2023-04-15T09:20:50.588Z,49.76
2023-04-15T09:21:50.756Z,48.31
2023-04-15T09:22:50.813Z,47.35
2023-04-15T09:23:50.956Z,46.23
2023-04-15T09:24:51.120Z,45.93
2023-04-15T09:25:51.220Z,46.64
2023-04-15T09:26:51.405Z,48.36
2023-04-15T09:27:51.434Z,49.24
2023-04-15T09:28:51.616Z,52.24
2023-04-15T09:29:51.743Z,53.20
2023-04-15T09:30:52.020Z,56.60
2023-04-15T09:31:51.998Z,57.69
2023-04-15T09:32:52.186Z,58.08
2023-04-15T09:33:52.377Z,57.02
2023-04-15T09:34:52.361Z,53.03
2023-04-15T09:35:52.499Z,53.10
2023-04-15T09:36:52.663Z,54.65
2023-04-15T09:37:52.900Z,54.79
2023-04-15T09:38:53.002Z,55.01
2023-04-15T09:39:53.076Z,53.88
2023-04-15T09:40:53.180Z,54.54
2023-04-15T09:41:53.334Z,55.26
2023-04-15T09:42:53.472Z,54.76
2023-04-15T09:43:53.585Z,55.88
2023-04-15T09:44:53.746Z,54.37
2023-04-15T09:45:53.912Z,54.19
2023-04-15T09:46:53.988Z,52.89
2023-04-15T09:47:55.341Z,51.00
2023-04-15T09:48:54.214Z,49.62
2023-04-15T09:49:54.484Z,48.78
2023-04-15T09:50:54.811Z,47.03
2023-04-15T09:52:04.375Z,46.54
2023-04-15T09:52:55.785Z,44.10
2023-04-15T09:53:54.858Z,46.44
2023-04-15T09:54:55.004Z,47.65
2023-04-15T09:55:55.558Z,47.78
2023-04-15T09:56:55.361Z,50.85
2023-04-15T09:57:55.460Z,53.67
2023-04-15T09:58:55.589Z,56.45
2023-04-15T09:59:55.746Z,58.45
2023-04-15T10:00:55.802Z,61.17
2023-04-15T10:01:56.044Z,64.35
2023-04-15T10:02:56.402Z,64.80
2023-04-15T10:03:56.246Z,63.77
2023-04-15T10:04:56.303Z,61.71
2023-04-15T10:05:56.469Z,59.65
2023-04-15T10:06:56.547Z,64.01
2023-04-15T10:07:56.703Z,68.78
2023-04-15T10:08:56.841Z,70.57
2023-04-15T10:09:57.050Z,71.65
2023-04-15T10:10:57.357Z,70.86
2023-04-15T10:11:57.227Z,72.14
2023-04-15T10:12:57.332Z,70.63
2023-04-15T10:13:57.499Z,66.65
2023-04-15T10:14:57.633Z,66.81
2023-04-15T10:15:57.785Z,69.34
2023-04-15T10:16:57.871Z,71.22
2023-04-15T10:17:58.061Z,67.89
2023-04-15T10:18:58.202Z,66.86
2023-04-15T10:19:58.241Z,66.44
2023-04-15T10:20:58.395Z,65.41
2023-04-15T10:21:58.492Z,63.62
2023-04-15T10:22:58.660Z,61.04
2023-04-15T10:23:58.830Z,58.82
2023-04-15T10:24:58.889Z,58.29
2023-04-15T10:25:59.016Z,59.10
2023-04-15T10:26:59.161Z,60.16
2023-04-15T10:27:59.234Z,58.24
2023-04-15T10:29:00.159Z,59.61
2023-04-15T10:29:59.606Z,59.91
2023-04-15T10:30:59.802Z,60.42
2023-04-15T10:31:59.794Z,59.40
2023-04-15T10:33:00.051Z,60.03
2023-04-15T10:34:01.072Z,62.30
2023-04-15T10:35:00.264Z,64.21
2023-04-15T10:36:00.380Z,66.60
2023-04-15T10:37:00.473Z,66.13
2023-04-15T10:38:00.640Z,67.45
2023-04-15T10:39:00.773Z,70.27
2023-04-15T10:40:00.923Z,70.04
2023-04-15T10:41:01.204Z,68.72
2023-04-15T10:42:01.176Z,67.29
2023-04-15T10:43:01.374Z,66.54
2023-04-15T10:44:01.717Z,69.63
2023-04-15T10:45:03.086Z,64.65
2023-04-15T10:46:01.698Z,66.28
2023-04-15T10:47:01.844Z,63.48
2023-04-15T10:48:03.614Z,63.34
2023-04-15T10:49:02.339Z,62.21
2023-04-15T10:50:02.630Z,62.21
2023-04-15T10:51:02.431Z,67.34
2023-04-15T10:52:02.563Z,71.77
2023-04-15T10:53:02.704Z,73.59
2023-04-15T10:54:02.852Z,73.92
2023-04-15T10:55:03.047Z,74.97
2023-04-15T10:56:03.509Z,75.31
2023-04-15T10:57:03.287Z,75.58
2023-04-15T10:58:03.391Z,75.31
2023-04-15T10:59:03.510Z,72.96
2023-04-15T11:00:03.658Z,73.72
2023-04-15T11:01:03.800Z,72.02
2023-04-15T11:02:04.037Z,69.69
2023-04-15T11:03:04.193Z,67.08
2023-04-15T11:04:04.514Z,69.23
2023-04-15T11:05:04.384Z,68.55
2023-04-15T11:06:04.413Z,66.33
2023-04-15T11:07:04.687Z,66.02
2023-04-15T11:08:04.778Z,66.44
2023-04-15T11:09:04.821Z,66.70
2023-04-15T11:10:04.936Z,64.26
2023-04-15T11:11:05.319Z,63.67
2023-04-15T11:12:05.384Z,63.10
2023-04-15T11:13:05.368Z,63.82
2023-04-15T11:14:05.446Z,64.85
2023-04-15T11:15:05.915Z,62.91
2023-04-15T11:16:06.686Z,62.72
2023-04-15T11:17:05.898Z,65.61
2023-04-15T11:18:06.119Z,73.02
2023-04-15T11:19:06.157Z,76.75
2023-04-15T11:20:06.487Z,80.81
2023-04-15T11:21:06.670Z,82.47
2023-04-15T11:22:07.261Z,81.99
2023-04-15T11:23:14.375Z,80.12
2023-04-15T11:24:08.073Z,83.21
2023-04-15T11:25:06.858Z,81.99
2023-04-15T11:26:06.979Z,80.04
2023-04-15T11:27:07.071Z,82.80
2023-04-15T11:28:07.393Z,83.29
2023-04-15T11:29:08.444Z,82.47
2023-04-15T11:30:07.676Z,79.81
2023-04-15T11:31:07.847Z,80.89
2023-04-15T11:32:07.954Z,80.89
2023-04-15T11:33:07.885Z,79.44
2023-04-15T11:34:08.130Z,79.66
2023-04-15T11:35:08.126Z,76.54
2023-04-15T11:36:08.284Z,72.02
2023-04-15T11:37:08.353Z,70.68
2023-04-15T11:38:08.534Z,75.78
2023-04-15T11:39:08.626Z,75.99
2023-04-15T11:40:08.775Z,79.51
2023-04-15T11:41:08.885Z,74.77
2023-04-15T11:42:09.155Z,73.92
2023-04-15T11:43:09.138Z,75.38
2023-04-15T11:44:09.336Z,73.85
2023-04-15T11:45:09.451Z,74.24
2023-04-15T11:46:09.620Z,69.75
2023-04-15T11:47:09.717Z,73.40
2023-04-15T11:48:09.836Z,73.66
2023-04-15T11:49:09.967Z,68.67
2023-04-15T11:50:10.096Z,68.50
2023-04-15T11:51:10.233Z,68.11
2023-04-15T11:52:10.387Z,66.44
2023-04-15T11:53:10.505Z,64.35
2023-04-15T11:54:10.768Z,68.61
2023-04-15T11:55:10.827Z,69.69
2023-04-15T11:56:10.857Z,69.57
2023-04-15T11:57:10.994Z,66.18
2023-04-15T11:58:11.124Z,66.18
2023-04-15T11:59:11.294Z,68.33
2023-04-15T12:00:11.372Z,67.45
2023-04-15T12:01:11.471Z,69.75
2023-04-15T12:02:11.711Z,68.61
2023-04-15T12:03:11.923Z,68.39
2023-04-15T12:04:12.189Z,71.04
2023-04-15T12:05:11.998Z,71.41
2023-04-15T12:06:12.207Z,72.70
2023-04-15T12:07:12.320Z,70.33
2023-04-15T12:08:12.438Z,70.92
2023-04-15T12:09:12.504Z,69.75
2023-04-15T12:10:12.698Z,69.63
2023-04-15T12:11:12.823Z,72.33
2023-04-15T12:12:13.088Z,73.02
2023-04-15T12:13:13.003Z,71.59
2023-04-15T12:14:13.134Z,70.75
2023-04-15T12:15:13.239Z,68.95
2023-04-15T12:16:13.452Z,65.05
2023-04-15T12:17:13.593Z,63.43
2023-04-15T12:18:13.796Z,60.42
2023-04-15T12:19:13.845Z,60.42
2023-04-15T12:20:13.962Z,59.95
2023-04-15T12:21:14.092Z,56.52
2023-04-15T12:22:14.211Z,57.45
2023-04-15T12:23:14.682Z,58.69
2023-04-15T12:24:14.446Z,62.81
2023-04-15T12:25:14.601Z,60.55
2023-04-15T12:26:14.645Z,60.86
2023-04-15T12:27:14.817Z,61.57
2023-04-15T12:28:15.078Z,59.82
2023-04-15T12:29:15.141Z,56.45
2023-04-15T12:30:18.064Z,57.84
2023-04-15T12:31:15.428Z,60.64
2023-04-15T12:32:15.593Z,62.26
2023-04-15T12:33:15.647Z,63.67
2023-04-15T12:34:15.733Z,63.00
2023-04-15T12:35:16.010Z,62.35
2023-04-15T12:36:16.012Z,61.89
2023-04-15T12:37:16.211Z,62.40
2023-04-15T12:38:16.508Z,63.24
2023-04-15T12:39:16.701Z,63.38
2023-04-15T12:40:16.679Z,62.86
2023-04-15T12:41:16.902Z,62.26
2023-04-15T12:42:16.974Z,61.98
2023-04-15T12:43:17.002Z,61.57
2023-04-15T12:44:17.172Z,59.15
2023-04-15T12:45:17.216Z,61.53
2023-04-15T12:46:17.427Z,61.89
2023-04-15T12:47:17.616Z,61.85
2023-04-15T12:48:17.648Z,60.42
2023-04-15T12:49:17.765Z,57.37
2023-04-15T12:50:17.962Z,54.76
2023-04-15T12:51:17.970Z,55.33
2023-04-15T12:52:18.195Z,58.41
2023-04-15T12:53:18.886Z,59.61
2023-04-15T12:54:18.505Z,60.42